sensor_id;sensor_type;location;lat;lon;timestamp;P1;durP1;ratioP1;P2;durP2;ratioP2
35990;SDS011;22064;42.672;23.282;2022-07-23T00:00:31;14.18;;;6.93;;
35990;SDS011;22064;42.672;23.282;2022-07-23T00:02:57;13.30;;;6.82;;
35990;SDS011;22064;42.672;23.282;2022-07-23T00:05:22;17.80;;;7.65;;
35990;SDS011;22064;42.672;23.282;2022-07-23T00:07:47;16.10;;;7.30;;
35990;SDS011;22064;42.672;23.282;2022-07-23T00:10:13;14.32;;;7.28;;
35990;SDS011;22064;42.672;23.282;2022-07-23T00:12:39;14.93;;;6.78;;
35990;SDS011;22064;42.672;23.282;2022-07-23T00:15:06;13.50;;;6.55;;
35990;SDS011;22064;42.672;23.282;2022-07-23T00:17:32;14.40;;;6.97;;
35990;SDS011;22064;42.672;23.282;2022-07-23T00:19:58;13.00;;;6.38;;
35990;SDS011;22064;42.672;23.282;2022-07-23T00:22:23;12.48;;;6.05;;
35990;SDS011;22064;42.672;23.282;2022-07-23T00:24:49;12.65;;;6.40;;
35990;SDS011;22064;42.672;23.282;2022-07-23T00:27:14;13.45;;;6.15;;
35990;SDS011;22064;42.672;23.282;2022-07-23T00:29:41;13.88;;;6.25;;
35990;SDS011;22064;42.672;23.282;2022-07-23T00:32:06;13.13;;;6.07;;
35990;SDS011;22064;42.672;23.282;2022-07-23T00:34:32;14.70;;;6.78;;
35990;SDS011;22064;42.672;23.282;2022-07-23T00:36:57;17.02;;;6.60;;
35990;SDS011;22064;42.672;23.282;2022-07-23T00:39:23;14.35;;;6.82;;
35990;SDS011;22064;42.672;23.282;2022-07-23T00:41:51;10.70;;;6.18;;
35990;SDS011;22064;42.672;23.282;2022-07-23T00:44:24;20.20;;;6.68;;
35990;SDS011;22064;42.672;23.282;2022-07-23T00:46:52;13.43;;;6.18;;
35990;SDS011;22064;42.672;23.282;2022-07-23T00:49:23;14.40;;;6.88;;
35990;SDS011;22064;42.672;23.282;2022-07-23T00:51:50;15.80;;;6.25;;
35990;SDS011;22064;42.672;23.282;2022-07-23T00:54:16;13.77;;;6.45;;
35990;SDS011;22064;42.672;23.282;2022-07-23T00:56:43;14.65;;;6.28;;
35990;SDS011;22064;42.672;23.282;2022-07-23T00:59:10;11.18;;;5.97;;
35990;SDS011;22064;42.672;23.282;2022-07-23T01:01:36;13.88;;;5.97;;
35990;SDS011;22064;42.672;23.282;2022-07-23T01:04:01;12.27;;;6.13;;
35990;SDS011;22064;42.672;23.282;2022-07-23T01:06:27;13.65;;;6.30;;
35990;SDS011;22064;42.672;23.282;2022-07-23T01:08:54;12.82;;;6.53;;
35990;SDS011;22064;42.672;23.282;2022-07-23T01:11:21;17.25;;;7.07;;
35990;SDS011;22064;42.672;23.282;2022-07-23T01:13:48;13.15;;;6.50;;
35990;SDS011;22064;42.672;23.282;2022-07-23T01:16:14;11.68;;;6.47;;
35990;SDS011;22064;42.672;23.282;2022-07-23T01:18:40;12.23;;;6.72;;
35990;SDS011;22064;42.672;23.282;2022-07-23T01:21:05;14.95;;;6.53;;
35990;SDS011;22064;42.672;23.282;2022-07-23T01:23:31;13.15;;;6.65;;
35990;SDS011;22064;42.672;23.282;2022-07-23T01:25:58;13.80;;;6.90;;
35990;SDS011;22064;42.672;23.282;2022-07-23T01:28:25;11.63;;;6.55;;
35990;SDS011;22064;42.672;23.282;2022-07-23T01:30:51;17.33;;;7.22;;
35990;SDS011;22064;42.672;23.282;2022-07-23T01:33:18;14.82;;;5.88;;
35990;SDS011;22064;42.672;23.282;2022-07-23T01:35:43;12.93;;;6.28;;
35990;SDS011;22064;42.672;23.282;2022-07-23T01:38:11;15.15;;;6.95;;
35990;SDS011;22064;42.672;23.282;2022-07-23T01:40:38;15.02;;;6.90;;
35990;SDS011;22064;42.672;23.282;2022-07-23T01:43:04;15.65;;;6.47;;
35990;SDS011;22064;42.672;23.282;2022-07-23T01:45:31;12.70;;;6.60;;
35990;SDS011;22064;42.672;23.282;2022-07-23T01:47:57;12.10;;;5.97;;
35990;SDS011;22064;42.672;23.282;2022-07-23T01:50:22;12.85;;;6.63;;
35990;SDS011;22064;42.672;23.282;2022-07-23T01:53:11;15.00;;;6.65;;
35990;SDS011;22064;42.672;23.282;2022-07-23T01:55:36;16.77;;;6.80;;
35990;SDS011;22064;42.672;23.282;2022-07-23T01:58:03;13.35;;;6.55;;
35990;SDS011;22064;42.672;23.282;2022-07-23T02:00:28;11.82;;;5.88;;
35990;SDS011;22064;42.672;23.282;2022-07-23T02:02:54;14.60;;;7.15;;
35990;SDS011;22064;42.672;23.282;2022-07-23T02:05:21;12.23;;;6.90;;
35990;SDS011;22064;42.672;23.282;2022-07-23T02:07:46;15.63;;;6.97;;
35990;SDS011;22064;42.672;23.282;2022-07-23T02:10:12;15.20;;;6.90;;
35990;SDS011;22064;42.672;23.282;2022-07-23T02:12:37;11.48;;;6.30;;
35990;SDS011;22064;42.672;23.282;2022-07-23T02:15:03;16.15;;;7.32;;
35990;SDS011;22064;42.672;23.282;2022-07-23T02:17:29;17.95;;;6.45;;
35990;SDS011;22064;42.672;23.282;2022-07-23T02:19:55;15.75;;;7.40;;
35990;SDS011;22064;42.672;23.282;2022-07-23T02:22:21;15.52;;;7.15;;
35990;SDS011;22064;42.672;23.282;2022-07-23T02:24:48;14.40;;;7.10;;
35990;SDS011;22064;42.672;23.282;2022-07-23T02:27:14;19.27;;;6.97;;
35990;SDS011;22064;42.672;23.282;2022-07-23T02:29:39;12.05;;;6.45;;
35990;SDS011;22064;42.672;23.282;2022-07-23T02:32:05;17.38;;;6.85;;
35990;SDS011;22064;42.672;23.282;2022-07-23T02:34:30;13.85;;;6.57;;
35990;SDS011;22064;42.672;23.282;2022-07-23T02:36:56;13.77;;;7.05;;
35990;SDS011;22064;42.672;23.282;2022-07-23T02:39:22;15.55;;;6.85;;
35990;SDS011;22064;42.672;23.282;2022-07-23T02:41:48;15.95;;;6.25;;
35990;SDS011;22064;42.672;23.282;2022-07-23T02:44:13;13.25;;;6.40;;
35990;SDS011;22064;42.672;23.282;2022-07-23T02:46:42;16.15;;;7.00;;
35990;SDS011;22064;42.672;23.282;2022-07-23T02:49:07;11.88;;;6.40;;
35990;SDS011;22064;42.672;23.282;2022-07-23T02:51:33;14.75;;;6.85;;
35990;SDS011;22064;42.672;23.282;2022-07-23T02:54:02;14.43;;;6.32;;
35990;SDS011;22064;42.672;23.282;2022-07-23T02:56:27;17.27;;;6.78;;
35990;SDS011;22064;42.672;23.282;2022-07-23T02:58:55;13.18;;;6.22;;
35990;SDS011;22064;42.672;23.282;2022-07-23T03:01:21;14.77;;;6.32;;
35990;SDS011;22064;42.672;23.282;2022-07-23T03:03:46;14.15;;;6.10;;
35990;SDS011;22064;42.672;23.282;2022-07-23T03:06:12;15.15;;;6.03;;
35990;SDS011;22064;42.672;23.282;2022-07-23T03:08:39;13.65;;;6.18;;
35990;SDS011;22064;42.672;23.282;2022-07-23T03:11:04;16.40;;;6.65;;
35990;SDS011;22064;42.672;23.282;2022-07-23T03:13:37;11.40;;;6.43;;
35990;SDS011;22064;42.672;23.282;2022-07-23T03:16:03;15.75;;;6.50;;
35990;SDS011;22064;42.672;23.282;2022-07-23T03:18:29;15.68;;;6.80;;
35990;SDS011;22064;42.672;23.282;2022-07-23T03:20:55;12.55;;;6.25;;
35990;SDS011;22064;42.672;23.282;2022-07-23T03:23:21;13.05;;;5.95;;
35990;SDS011;22064;42.672;23.282;2022-07-23T03:25:47;14.23;;;6.20;;
35990;SDS011;22064;42.672;23.282;2022-07-23T03:28:16;13.52;;;6.10;;
35990;SDS011;22064;42.672;23.282;2022-07-23T03:30:47;12.03;;;6.27;;
35990;SDS011;22064;42.672;23.282;2022-07-23T03:33:13;15.98;;;6.70;;
35990;SDS011;22064;42.672;23.282;2022-07-23T03:35:41;15.63;;;7.18;;
35990;SDS011;22064;42.672;23.282;2022-07-23T03:38:20;17.25;;;6.78;;
35990;SDS011;22064;42.672;23.282;2022-07-23T03:40:46;13.35;;;6.93;;
35990;SDS011;22064;42.672;23.282;2022-07-23T03:43:12;15.75;;;7.72;;
35990;SDS011;22064;42.672;23.282;2022-07-23T03:45:37;20.13;;;8.10;;
35990;SDS011;22064;42.672;23.282;2022-07-23T03:48:03;17.63;;;7.78;;
35990;SDS011;22064;42.672;23.282;2022-07-23T03:50:29;17.13;;;7.60;;
35990;SDS011;22064;42.672;23.282;2022-07-23T03:52:55;18.83;;;8.13;;
35990;SDS011;22064;42.672;23.282;2022-07-23T03:55:20;16.23;;;8.10;;
35990;SDS011;22064;42.672;23.282;2022-07-23T03:57:46;14.75;;;6.97;;
35990;SDS011;22064;42.672;23.282;2022-07-23T04:00:11;13.45;;;6.47;;
35990;SDS011;22064;42.672;23.282;2022-07-23T04:02:42;14.95;;;7.05;;
35990;SDS011;22064;42.672;23.282;2022-07-23T04:05:09;14.70;;;6.80;;
35990;SDS011;22064;42.672;23.282;2022-07-23T04:07:36;15.38;;;6.60;;
35990;SDS011;22064;42.672;23.282;2022-07-23T04:10:02;19.15;;;7.55;;
35990;SDS011;22064;42.672;23.282;2022-07-23T04:12:28;16.20;;;6.75;;
35990;SDS011;22064;42.672;23.282;2022-07-23T04:14:53;15.75;;;6.90;;
35990;SDS011;22064;42.672;23.282;2022-07-23T04:17:19;18.92;;;6.47;;
35990;SDS011;22064;42.672;23.282;2022-07-23T04:19:45;15.10;;;7.05;;
35990;SDS011;22064;42.672;23.282;2022-07-23T04:22:14;14.27;;;6.68;;
35990;SDS011;22064;42.672;23.282;2022-07-23T04:24:40;18.90;;;7.45;;
35990;SDS011;22064;42.672;23.282;2022-07-23T04:27:07;20.50;;;8.45;;
35990;SDS011;22064;42.672;23.282;2022-07-23T04:29:33;17.27;;;8.50;;
35990;SDS011;22064;42.672;23.282;2022-07-23T04:31:59;23.83;;;8.25;;
35990;SDS011;22064;42.672;23.282;2022-07-23T04:34:24;21.45;;;8.60;;
35990;SDS011;22064;42.672;23.282;2022-07-23T04:36:52;18.38;;;8.15;;
35990;SDS011;22064;42.672;23.282;2022-07-23T04:39:18;16.58;;;8.90;;
35990;SDS011;22064;42.672;23.282;2022-07-23T04:41:45;18.15;;;8.13;;
35990;SDS011;22064;42.672;23.282;2022-07-23T04:44:11;16.45;;;8.13;;
35990;SDS011;22064;42.672;23.282;2022-07-23T04:46:37;14.30;;;7.80;;
35990;SDS011;22064;42.672;23.282;2022-07-23T04:49:04;16.38;;;7.80;;
35990;SDS011;22064;42.672;23.282;2022-07-23T04:51:31;21.98;;;8.60;;
35990;SDS011;22064;42.672;23.282;2022-07-23T04:53:56;18.25;;;8.30;;
35990;SDS011;22064;42.672;23.282;2022-07-23T04:56:22;15.40;;;7.57;;
35990;SDS011;22064;42.672;23.282;2022-07-23T04:58:47;18.05;;;7.30;;
35990;SDS011;22064;42.672;23.282;2022-07-23T05:01:13;18.15;;;7.85;;
35990;SDS011;22064;42.672;23.282;2022-07-23T05:03:38;15.43;;;7.65;;
35990;SDS011;22064;42.672;23.282;2022-07-23T05:06:04;16.23;;;7.78;;
35990;SDS011;22064;42.672;23.282;2022-07-23T05:08:30;16.60;;;7.65;;
35990;SDS011;22064;42.672;23.282;2022-07-23T05:10:57;16.38;;;7.45;;
35990;SDS011;22064;42.672;23.282;2022-07-23T05:13:22;14.55;;;7.45;;
35990;SDS011;22064;42.672;23.282;2022-07-23T05:15:50;17.98;;;7.78;;
35990;SDS011;22064;42.672;23.282;2022-07-23T05:18:16;18.45;;;8.50;;
35990;SDS011;22064;42.672;23.282;2022-07-23T05:20:42;16.20;;;8.07;;
35990;SDS011;22064;42.672;23.282;2022-07-23T05:23:11;15.48;;;8.32;;
35990;SDS011;22064;42.672;23.282;2022-07-23T05:25:37;16.13;;;7.72;;
35990;SDS011;22064;42.672;23.282;2022-07-23T05:28:03;17.42;;;8.57;;
35990;SDS011;22064;42.672;23.282;2022-07-23T05:30:28;17.52;;;10.35;;
35990;SDS011;22064;42.672;23.282;2022-07-23T05:32:58;18.42;;;10.77;;
35990;SDS011;22064;42.672;23.282;2022-07-23T05:35:24;18.98;;;8.70;;
35990;SDS011;22064;42.672;23.282;2022-07-23T05:38:07;16.08;;;7.65;;
35990;SDS011;22064;42.672;23.282;2022-07-23T05:40:34;15.93;;;8.07;;
35990;SDS011;22064;42.672;23.282;2022-07-23T05:43:00;15.88;;;7.72;;
35990;SDS011;22064;42.672;23.282;2022-07-23T05:45:25;18.15;;;8.65;;
35990;SDS011;22064;42.672;23.282;2022-07-23T05:47:51;17.40;;;8.32;;
35990;SDS011;22064;42.672;23.282;2022-07-23T05:50:37;16.42;;;7.45;;
35990;SDS011;22064;42.672;23.282;2022-07-23T05:53:19;16.60;;;7.90;;
35990;SDS011;22064;42.672;23.282;2022-07-23T05:55:57;15.60;;;8.15;;
35990;SDS011;22064;42.672;23.282;2022-07-23T05:58:23;18.10;;;8.23;;
35990;SDS011;22064;42.672;23.282;2022-07-23T06:00:48;18.17;;;8.15;;
35990;SDS011;22064;42.672;23.282;2022-07-23T06:03:14;18.10;;;8.15;;
35990;SDS011;22064;42.672;23.282;2022-07-23T06:05:40;16.88;;;8.20;;
35990;SDS011;22064;42.672;23.282;2022-07-23T06:08:07;14.73;;;8.57;;
35990;SDS011;22064;42.672;23.282;2022-07-23T06:10:32;15.35;;;7.93;;
35990;SDS011;22064;42.672;23.282;2022-07-23T06:12:58;15.90;;;7.90;;
35990;SDS011;22064;42.672;23.282;2022-07-23T06:15:24;20.20;;;8.38;;
35990;SDS011;22064;42.672;23.282;2022-07-23T06:17:50;17.48;;;8.32;;
35990;SDS011;22064;42.672;23.282;2022-07-23T06:20:15;14.82;;;7.82;;
35990;SDS011;22064;42.672;23.282;2022-07-23T06:22:41;15.60;;;7.97;;
35990;SDS011;22064;42.672;23.282;2022-07-23T06:25:07;16.35;;;8.25;;
35990;SDS011;22064;42.672;23.282;2022-07-23T06:27:33;18.52;;;8.65;;
35990;SDS011;22064;42.672;23.282;2022-07-23T06:29:58;18.35;;;8.35;;
35990;SDS011;22064;42.672;23.282;2022-07-23T06:32:24;18.60;;;11.10;;
35990;SDS011;22064;42.672;23.282;2022-07-23T06:34:49;19.27;;;9.55;;
35990;SDS011;22064;42.672;23.282;2022-07-23T06:37:15;20.35;;;9.18;;
35990;SDS011;22064;42.672;23.282;2022-07-23T06:39:41;15.95;;;8.32;;
35990;SDS011;22064;42.672;23.282;2022-07-23T06:42:07;23.73;;;9.20;;
35990;SDS011;22064;42.672;23.282;2022-07-23T06:44:42;18.25;;;8.98;;
35990;SDS011;22064;42.672;23.282;2022-07-23T06:47:08;19.52;;;8.48;;
35990;SDS011;22064;42.672;23.282;2022-07-23T06:49:34;17.52;;;8.07;;
35990;SDS011;22064;42.672;23.282;2022-07-23T06:52:00;18.77;;;8.27;;
35990;SDS011;22064;42.672;23.282;2022-07-23T06:54:25;17.20;;;7.70;;
35990;SDS011;22064;42.672;23.282;2022-07-23T06:56:51;16.08;;;8.65;;
35990;SDS011;22064;42.672;23.282;2022-07-23T06:59:16;15.85;;;8.70;;
35990;SDS011;22064;42.672;23.282;2022-07-23T07:01:42;14.30;;;8.02;;
35990;SDS011;22064;42.672;23.282;2022-07-23T07:04:07;16.40;;;7.95;;
35990;SDS011;22064;42.672;23.282;2022-07-23T07:06:33;15.25;;;7.90;;
35990;SDS011;22064;42.672;23.282;2022-07-23T07:08:59;14.88;;;8.00;;
35990;SDS011;22064;42.672;23.282;2022-07-23T07:11:25;17.38;;;8.30;;
35990;SDS011;22064;42.672;23.282;2022-07-23T07:13:51;14.40;;;8.52;;
35990;SDS011;22064;42.672;23.282;2022-07-23T07:16:16;17.42;;;8.50;;
35990;SDS011;22064;42.672;23.282;2022-07-23T07:18:42;15.93;;;7.82;;
35990;SDS011;22064;42.672;23.282;2022-07-23T07:21:07;15.43;;;8.10;;
35990;SDS011;22064;42.672;23.282;2022-07-23T07:23:33;16.05;;;8.57;;
35990;SDS011;22064;42.672;23.282;2022-07-23T07:25:59;18.00;;;8.43;;
35990;SDS011;22064;42.672;23.282;2022-07-23T07:28:24;18.33;;;8.43;;
35990;SDS011;22064;42.672;23.282;2022-07-23T07:30:50;18.17;;;8.00;;
35990;SDS011;22064;42.672;23.282;2022-07-23T07:33:15;15.48;;;7.82;;
35990;SDS011;22064;42.672;23.282;2022-07-23T07:35:41;18.17;;;8.57;;
35990;SDS011;22064;42.672;23.282;2022-07-23T07:38:06;16.52;;;8.77;;
35990;SDS011;22064;42.672;23.282;2022-07-23T07:40:32;19.23;;;8.98;;
35990;SDS011;22064;42.672;23.282;2022-07-23T07:42:57;14.77;;;8.15;;
35990;SDS011;22064;42.672;23.282;2022-07-23T07:45:23;15.88;;;8.57;;
35990;SDS011;22064;42.672;23.282;2022-07-23T07:47:50;17.45;;;8.82;;
35990;SDS011;22064;42.672;23.282;2022-07-23T07:50:18;18.75;;;8.55;;
35990;SDS011;22064;42.672;23.282;2022-07-23T07:52:44;18.00;;;9.32;;
35990;SDS011;22064;42.672;23.282;2022-07-23T07:55:10;19.20;;;9.48;;
35990;SDS011;22064;42.672;23.282;2022-07-23T07:57:36;15.35;;;8.43;;
35990;SDS011;22064;42.672;23.282;2022-07-23T08:00:03;16.20;;;8.20;;
35990;SDS011;22064;42.672;23.282;2022-07-23T08:02:50;20.55;;;8.52;;
35990;SDS011;22064;42.672;23.282;2022-07-23T08:05:21;16.35;;;8.48;;
35990;SDS011;22064;42.672;23.282;2022-07-23T08:07:48;17.88;;;8.98;;
35990;SDS011;22064;42.672;23.282;2022-07-23T08:10:14;16.58;;;9.07;;
35990;SDS011;22064;42.672;23.282;2022-07-23T08:12:41;16.67;;;8.68;;
35990;SDS011;22064;42.672;23.282;2022-07-23T08:15:11;22.08;;;8.57;;
35990;SDS011;22064;42.672;23.282;2022-07-23T08:17:38;19.52;;;9.55;;
35990;SDS011;22064;42.672;23.282;2022-07-23T08:20:04;22.95;;;8.32;;
35990;SDS011;22064;42.672;23.282;2022-07-23T08:22:50;17.88;;;8.02;;
35990;SDS011;22064;42.672;23.282;2022-07-23T08:27:47;17.83;;;7.85;;
35990;SDS011;22064;42.672;23.282;2022-07-23T08:30:12;16.45;;;7.82;;
35990;SDS011;22064;42.672;23.282;2022-07-23T08:32:48;19.50;;;8.48;;
35990;SDS011;22064;42.672;23.282;2022-07-23T08:35:25;15.90;;;8.30;;
35990;SDS011;22064;42.672;23.282;2022-07-23T08:37:53;15.85;;;8.35;;
35990;SDS011;22064;42.672;23.282;2022-07-23T08:40:20;16.52;;;7.78;;
35990;SDS011;22064;42.672;23.282;2022-07-23T08:42:49;15.68;;;7.90;;
35990;SDS011;22064;42.672;23.282;2022-07-23T08:45:17;17.70;;;7.90;;
35990;SDS011;22064;42.672;23.282;2022-07-23T08:47:44;17.00;;;7.63;;
35990;SDS011;22064;42.672;23.282;2022-07-23T08:50:10;18.58;;;8.20;;
35990;SDS011;22064;42.672;23.282;2022-07-23T08:52:36;16.40;;;8.63;;
35990;SDS011;22064;42.672;23.282;2022-07-23T08:55:04;16.48;;;7.72;;
35990;SDS011;22064;42.672;23.282;2022-07-23T08:57:30;18.45;;;8.73;;
35990;SDS011;22064;42.672;23.282;2022-07-23T08:59:56;17.05;;;7.80;;
35990;SDS011;22064;42.672;23.282;2022-07-23T09:02:21;16.23;;;7.85;;
35990;SDS011;22064;42.672;23.282;2022-07-23T09:04:47;16.15;;;7.68;;
35990;SDS011;22064;42.672;23.282;2022-07-23T09:07:13;18.95;;;8.20;;
35990;SDS011;22064;42.672;23.282;2022-07-23T09:09:38;17.98;;;7.68;;
35990;SDS011;22064;42.672;23.282;2022-07-23T09:12:05;15.13;;;8.30;;
35990;SDS011;22064;42.672;23.282;2022-07-23T09:14:41;18.83;;;8.13;;
35990;SDS011;22064;42.672;23.282;2022-07-23T09:17:09;14.30;;;7.78;;
35990;SDS011;22064;42.672;23.282;2022-07-23T09:19:36;14.68;;;7.30;;
35990;SDS011;22064;42.672;23.282;2022-07-23T09:22:21;15.15;;;7.63;;
35990;SDS011;22064;42.672;23.282;2022-07-23T09:27:52;17.33;;;7.43;;
35990;SDS011;22064;42.672;23.282;2022-07-23T09:30:23;14.02;;;7.20;;
35990;SDS011;22064;42.672;23.282;2022-07-23T09:35:55;15.30;;;7.40;;
35990;SDS011;22064;42.672;23.282;2022-07-23T09:38:22;15.40;;;7.45;;
35990;SDS011;22064;42.672;23.282;2022-07-23T09:41:07;13.18;;;6.07;;
35990;SDS011;22064;42.672;23.282;2022-07-23T09:43:36;14.23;;;7.15;;
35990;SDS011;22064;42.672;23.282;2022-07-23T09:46:18;14.35;;;6.95;;
35990;SDS011;22064;42.672;23.282;2022-07-23T09:48:45;12.10;;;6.70;;
35990;SDS011;22064;42.672;23.282;2022-07-23T09:51:11;12.25;;;6.07;;
35990;SDS011;22064;42.672;23.282;2022-07-23T09:53:39;12.93;;;6.47;;
35990;SDS011;22064;42.672;23.282;2022-07-23T09:56:04;14.55;;;6.85;;
35990;SDS011;22064;42.672;23.282;2022-07-23T09:58:32;13.02;;;7.10;;
35990;SDS011;22064;42.672;23.282;2022-07-23T10:00:58;13.02;;;6.97;;
35990;SDS011;22064;42.672;23.282;2022-07-23T10:03:24;18.10;;;7.22;;
35990;SDS011;22064;42.672;23.282;2022-07-23T10:06:12;14.73;;;7.40;;
35990;SDS011;22064;42.672;23.282;2022-07-23T10:09:11;13.48;;;6.47;;
35990;SDS011;22064;42.672;23.282;2022-07-23T10:12:02;13.88;;;6.57;;
35990;SDS011;22064;42.672;23.282;2022-07-23T10:14:58;12.18;;;7.05;;
35990;SDS011;22064;42.672;23.282;2022-07-23T10:17:25;13.85;;;7.30;;
35990;SDS011;22064;42.672;23.282;2022-07-23T10:19:50;18.83;;;7.20;;
35990;SDS011;22064;42.672;23.282;2022-07-23T10:22:20;17.10;;;6.43;;
35990;SDS011;22064;42.672;23.282;2022-07-23T10:30:09;13.00;;;6.05;;
35990;SDS011;22064;42.672;23.282;2022-07-23T10:35:31;15.35;;;6.10;;
35990;SDS011;22064;42.672;23.282;2022-07-23T10:40:34;12.27;;;5.88;;
35990;SDS011;22064;42.672;23.282;2022-07-23T10:43:00;13.77;;;6.50;;
35990;SDS011;22064;42.672;23.282;2022-07-23T10:45:32;19.70;;;6.60;;
35990;SDS011;22064;42.672;23.282;2022-07-23T10:50:39;16.23;;;6.35;;
35990;SDS011;22064;42.672;23.282;2022-07-23T10:57:59;15.30;;;6.40;;
35990;SDS011;22064;42.672;23.282;2022-07-23T11:00:27;14.57;;;5.47;;
35990;SDS011;22064;42.672;23.282;2022-07-23T11:02:55;16.23;;;6.00;;
35990;SDS011;22064;42.672;23.282;2022-07-23T11:05:23;16.73;;;5.57;;
35990;SDS011;22064;42.672;23.282;2022-07-23T11:32:05;15.13;;;5.40;;
35990;SDS011;22064;42.672;23.282;2022-07-23T11:34:47;17.00;;;5.63;;
35990;SDS011;22064;42.672;23.282;2022-07-23T11:39:59;17.65;;;5.00;;
35990;SDS011;22064;42.672;23.282;2022-07-23T11:42:25;14.63;;;4.93;;
35990;SDS011;22064;42.672;23.282;2022-07-23T11:44:51;15.95;;;5.25;;
35990;SDS011;22064;42.672;23.282;2022-07-23T11:47:21;11.90;;;4.80;;
35990;SDS011;22064;42.672;23.282;2022-07-23T11:49:52;12.02;;;5.05;;
35990;SDS011;22064;42.672;23.282;2022-07-23T11:52:22;12.10;;;4.68;;
35990;SDS011;22064;42.672;23.282;2022-07-23T11:54:49;18.30;;;5.40;;
35990;SDS011;22064;42.672;23.282;2022-07-23T11:57:21;17.27;;;5.40;;
35990;SDS011;22064;42.672;23.282;2022-07-23T11:59:51;15.82;;;4.72;;
35990;SDS011;22064;42.672;23.282;2022-07-23T12:04:47;15.57;;;5.45;;
35990;SDS011;22064;42.672;23.282;2022-07-23T12:09:54;15.23;;;4.63;;
35990;SDS011;22064;42.672;23.282;2022-07-23T12:12:20;13.90;;;4.85;;
35990;SDS011;22064;42.672;23.282;2022-07-23T12:14:56;16.80;;;4.65;;
35990;SDS011;22064;42.672;23.282;2022-07-23T12:17:31;18.10;;;4.95;;
35990;SDS011;22064;42.672;23.282;2022-07-23T12:19:58;17.02;;;4.53;;
35990;SDS011;22064;42.672;23.282;2022-07-23T12:22:25;18.10;;;4.50;;
35990;SDS011;22064;42.672;23.282;2022-07-23T12:24:59;14.98;;;4.47;;
35990;SDS011;22064;42.672;23.282;2022-07-23T12:27:26;15.68;;;4.72;;
35990;SDS011;22064;42.672;23.282;2022-07-23T12:29:52;18.60;;;5.13;;
35990;SDS011;22064;42.672;23.282;2022-07-23T12:32:22;13.13;;;5.78;;
35990;SDS011;22064;42.672;23.282;2022-07-23T12:34:49;16.08;;;5.30;;
35990;SDS011;22064;42.672;23.282;2022-07-23T12:37:33;19.23;;;5.25;;
35990;SDS011;22064;42.672;23.282;2022-07-23T12:43:06;15.95;;;5.15;;
35990;SDS011;22064;42.672;23.282;2022-07-23T12:45:48;18.77;;;5.32;;
35990;SDS011;22064;42.672;23.282;2022-07-23T12:48:18;17.85;;;5.40;;
35990;SDS011;22064;42.672;23.282;2022-07-23T12:51:00;17.98;;;5.60;;
35990;SDS011;22064;42.672;23.282;2022-07-23T12:56:07;13.43;;;4.90;;
35990;SDS011;22064;42.672;23.282;2022-07-23T12:58:41;17.92;;;5.82;;
35990;SDS011;22064;42.672;23.282;2022-07-23T13:01:21;11.10;;;4.38;;
35990;SDS011;22064;42.672;23.282;2022-07-23T13:04:03;15.73;;;5.10;;
35990;SDS011;22064;42.672;23.282;2022-07-23T13:06:31;15.18;;;4.53;;
35990;SDS011;22064;42.672;23.282;2022-07-23T13:08:58;12.50;;;4.88;;
35990;SDS011;22064;42.672;23.282;2022-07-23T13:11:24;18.33;;;5.13;;
35990;SDS011;22064;42.672;23.282;2022-07-23T13:13:50;18.23;;;5.85;;
35990;SDS011;22064;42.672;23.282;2022-07-23T13:16:15;15.15;;;4.80;;
35990;SDS011;22064;42.672;23.282;2022-07-23T13:18:41;15.88;;;5.60;;
35990;SDS011;22064;42.672;23.282;2022-07-23T13:21:07;10.90;;;5.07;;
35990;SDS011;22064;42.672;23.282;2022-07-23T13:23:33;14.43;;;5.10;;
35990;SDS011;22064;42.672;23.282;2022-07-23T13:25:59;12.77;;;6.05;;
35990;SDS011;22064;42.672;23.282;2022-07-23T13:28:24;9.18;;;4.93;;
35990;SDS011;22064;42.672;23.282;2022-07-23T13:30:50;14.20;;;4.80;;
35990;SDS011;22064;42.672;23.282;2022-07-23T13:33:20;16.08;;;4.50;;
35990;SDS011;22064;42.672;23.282;2022-07-23T13:35:48;17.58;;;5.50;;
35990;SDS011;22064;42.672;23.282;2022-07-23T13:38:14;13.48;;;5.65;;
35990;SDS011;22064;42.672;23.282;2022-07-23T13:40:41;13.98;;;4.70;;
35990;SDS011;22064;42.672;23.282;2022-07-23T13:43:08;10.87;;;4.80;;
35990;SDS011;22064;42.672;23.282;2022-07-23T13:45:36;14.63;;;4.78;;
35990;SDS011;22064;42.672;23.282;2022-07-23T13:48:02;13.30;;;5.10;;
35990;SDS011;22064;42.672;23.282;2022-07-23T13:50:28;12.32;;;4.95;;
35990;SDS011;22064;42.672;23.282;2022-07-23T13:52:54;11.52;;;4.70;;
35990;SDS011;22064;42.672;23.282;2022-07-23T13:55:20;17.50;;;4.97;;
35990;SDS011;22064;42.672;23.282;2022-07-23T13:57:45;8.90;;;4.20;;
35990;SDS011;22064;42.672;23.282;2022-07-23T14:00:11;12.63;;;5.03;;
35990;SDS011;22064;42.672;23.282;2022-07-23T14:02:38;16.15;;;5.00;;
35990;SDS011;22064;42.672;23.282;2022-07-23T14:05:05;15.32;;;4.68;;
35990;SDS011;22064;42.672;23.282;2022-07-23T14:07:33;11.45;;;4.45;;
35990;SDS011;22064;42.672;23.282;2022-07-23T14:09:59;11.85;;;4.63;;
35990;SDS011;22064;42.672;23.282;2022-07-23T14:12:25;15.43;;;5.20;;
35990;SDS011;22064;42.672;23.282;2022-07-23T14:14:51;13.68;;;4.60;;
35990;SDS011;22064;42.672;23.282;2022-07-23T14:17:18;11.90;;;4.80;;
35990;SDS011;22064;42.672;23.282;2022-07-23T14:19:44;11.27;;;4.50;;
35990;SDS011;22064;42.672;23.282;2022-07-23T14:22:10;13.02;;;4.72;;
35990;SDS011;22064;42.672;23.282;2022-07-23T14:24:35;15.07;;;4.88;;
35990;SDS011;22064;42.672;23.282;2022-07-23T14:27:01;16.80;;;5.32;;
35990;SDS011;22064;42.672;23.282;2022-07-23T14:29:28;13.20;;;5.35;;
35990;SDS011;22064;42.672;23.282;2022-07-23T14:31:54;14.18;;;5.05;;
35990;SDS011;22064;42.672;23.282;2022-07-23T14:34:19;12.55;;;5.03;;
35990;SDS011;22064;42.672;23.282;2022-07-23T14:36:45;14.88;;;5.45;;
35990;SDS011;22064;42.672;23.282;2022-07-23T14:39:10;11.52;;;5.00;;
35990;SDS011;22064;42.672;23.282;2022-07-23T14:41:37;12.55;;;4.75;;
35990;SDS011;22064;42.672;23.282;2022-07-23T14:44:03;11.18;;;4.47;;
35990;SDS011;22064;42.672;23.282;2022-07-23T14:46:29;13.60;;;4.80;;
35990;SDS011;22064;42.672;23.282;2022-07-23T14:48:55;17.77;;;5.18;;
35990;SDS011;22064;42.672;23.282;2022-07-23T14:51:20;14.15;;;5.10;;
35990;SDS011;22064;42.672;23.282;2022-07-23T14:53:46;12.25;;;4.40;;
35990;SDS011;22064;42.672;23.282;2022-07-23T14:56:12;10.85;;;4.53;;
35990;SDS011;22064;42.672;23.282;2022-07-23T14:58:39;8.00;;;4.68;;
35990;SDS011;22064;42.672;23.282;2022-07-23T15:01:05;15.85;;;5.07;;
35990;SDS011;22064;42.672;23.282;2022-07-23T15:03:31;10.90;;;5.10;;
35990;SDS011;22064;42.672;23.282;2022-07-23T15:05:56;14.95;;;5.00;;
35990;SDS011;22064;42.672;23.282;2022-07-23T15:08:22;12.95;;;4.65;;
35990;SDS011;22064;42.672;23.282;2022-07-23T15:10:47;9.38;;;4.85;;
35990;SDS011;22064;42.672;23.282;2022-07-23T15:13:13;13.10;;;4.97;;
35990;SDS011;22064;42.672;23.282;2022-07-23T15:15:38;13.75;;;5.07;;
35990;SDS011;22064;42.672;23.282;2022-07-23T15:18:04;14.35;;;5.35;;
35990;SDS011;22064;42.672;23.282;2022-07-23T15:20:30;11.65;;;4.95;;
35990;SDS011;22064;42.672;23.282;2022-07-23T15:22:56;13.27;;;4.95;;
35990;SDS011;22064;42.672;23.282;2022-07-23T15:25:22;13.35;;;4.90;;
35990;SDS011;22064;42.672;23.282;2022-07-23T15:27:47;10.63;;;4.72;;